createdAt,value
2018-12-02T00:00:17.976Z,3.00
2018-12-02T00:02:45.361Z,3.20
2018-12-02T00:05:12.752Z,2.60
2018-12-02T00:07:40.325Z,3.10
2018-12-02T00:10:10.742Z,2.53
2018-12-02T00:12:38.306Z,2.57
2018-12-02T00:15:38.161Z,2.63
2018-12-02T00:18:07.962Z,2.93
2018-12-02T00:20:35.379Z,2.80
2018-12-02T00:23:02.766Z,2.63
2018-12-02T00:25:30.130Z,2.70
2018-12-02T00:27:58.916Z,2.30
2018-12-02T00:30:27.580Z,2.50
2018-12-02T00:32:54.982Z,2.70
2018-12-02T00:35:22.408Z,2.50
2018-12-02T00:37:51.130Z,2.40
2018-12-02T00:40:19.408Z,2.50
2018-12-02T00:42:56.702Z,3.00
2018-12-02T00:45:27.281Z,2.70
2018-12-02T00:47:54.830Z,3.00
2018-12-02T00:50:22.309Z,2.77
2018-12-02T00:52:52.954Z,2.70
2018-12-02T00:55:24.360Z,2.60
2018-12-02T00:57:51.793Z,2.90
2018-12-02T01:00:19.895Z,2.70
2018-12-02T01:02:48.529Z,3.03
2018-12-02T01:05:16.825Z,2.80
2018-12-02T01:07:44.248Z,3.07
2018-12-02T01:10:13.867Z,2.73
2018-12-02T01:12:41.324Z,2.40
2018-12-02T01:15:13.919Z,2.60
2018-12-02T01:17:41.351Z,2.30
2018-12-02T01:20:10.217Z,3.20
2018-12-02T01:22:37.597Z,2.70
2018-12-02T01:25:06.177Z,2.97
2018-12-02T01:27:33.554Z,3.07
2018-12-02T01:30:01.650Z,3.20
2018-12-02T01:32:29.027Z,2.97
2018-12-02T01:34:56.452Z,3.03
2018-12-02T01:37:23.785Z,3.13
2018-12-02T01:39:51.173Z,3.27
2018-12-02T01:42:18.513Z,3.10
2018-12-02T01:44:45.990Z,3.17
2018-12-02T01:47:13.321Z,3.03
2018-12-02T01:49:40.655Z,3.30
2018-12-02T01:52:08.068Z,3.07
2018-12-02T01:54:35.465Z,3.20
2018-12-02T01:57:02.799Z,3.03
2018-12-02T01:59:30.177Z,3.40
2018-12-02T02:01:57.716Z,3.50
2018-12-02T02:04:25.078Z,3.30
2018-12-02T02:06:52.450Z,3.40
2018-12-02T02:09:19.899Z,3.10
2018-12-02T02:11:47.345Z,2.90
2018-12-02T02:14:14.852Z,3.37
2018-12-02T02:16:42.174Z,3.13
2018-12-02T02:19:09.584Z,3.00
2018-12-02T02:21:36.945Z,2.80
2018-12-02T02:24:04.684Z,3.03
2018-12-02T02:26:32.136Z,3.43
2018-12-02T02:28:59.560Z,3.33
2018-12-02T02:31:26.908Z,3.40
2018-12-02T02:33:54.333Z,3.43
2018-12-02T02:36:21.829Z,3.90
2018-12-02T02:38:49.323Z,3.40
2018-12-02T02:41:16.668Z,3.07
2018-12-02T02:43:44.026Z,3.17
2018-12-02T02:46:11.445Z,2.80
2018-12-02T02:48:38.863Z,2.80
2018-12-02T02:51:06.229Z,2.53
2018-12-02T02:53:33.606Z,2.43
2018-12-02T02:56:00.973Z,2.20
2018-12-02T02:58:28.347Z,2.30
2018-12-02T03:00:56.363Z,2.73
2018-12-02T03:03:23.886Z,2.20
2018-12-02T03:05:51.365Z,2.27
2018-12-02T03:08:18.691Z,2.40
2018-12-02T03:10:46.125Z,2.53
2018-12-02T03:13:13.463Z,2.40
2018-12-02T03:15:40.920Z,2.57
2018-12-02T03:18:08.257Z,2.50
2018-12-02T03:20:35.635Z,2.23
2018-12-02T03:23:02.990Z,2.47
2018-12-02T03:25:30.383Z,2.47
2018-12-02T03:27:57.923Z,2.33
2018-12-02T03:30:25.704Z,2.30
2018-12-02T03:32:53.344Z,2.33
2018-12-02T03:35:27.582Z,2.30
2018-12-02T03:37:55.845Z,2.30
2018-12-02T03:40:26.954Z,2.13
2018-12-02T03:42:54.465Z,2.20
2018-12-02T03:45:23.879Z,2.80
2018-12-02T03:47:51.229Z,2.10
2018-12-02T03:50:19.667Z,2.10
2018-12-02T03:52:47.393Z,2.23
2018-12-02T03:55:14.773Z,2.30
2018-12-02T03:57:42.239Z,2.00
2018-12-02T04:00:25.088Z,2.60
2018-12-02T04:02:53.524Z,2.60
2018-12-02T04:05:23.940Z,1.97
2018-12-02T04:07:51.548Z,2.23
2018-12-02T04:10:19.482Z,2.00
2018-12-02T04:12:47.974Z,2.03
2018-12-02T04:15:16.506Z,2.20
2018-12-02T04:17:44.890Z,2.73
2018-12-02T04:20:14.011Z,2.70
2018-12-02T04:22:41.722Z,2.20
2018-12-02T04:25:12.217Z,2.90
2018-12-02T04:27:39.585Z,2.50
2018-12-02T04:30:10.641Z,2.70
2018-12-02T04:32:38.039Z,2.47
2018-12-02T04:35:09.099Z,2.03
2018-12-02T04:37:36.469Z,2.13
2018-12-02T04:40:06.380Z,1.90
2018-12-02T04:42:33.747Z,2.10
2018-12-02T04:45:01.187Z,2.10
2018-12-02T04:47:28.640Z,2.30
2018-12-02T04:49:55.997Z,2.33
2018-12-02T04:52:23.463Z,2.20
2018-12-02T04:54:51.171Z,2.20
2018-12-02T04:57:18.677Z,2.20
2018-12-02T04:59:47.347Z,2.10
2018-12-02T05:02:13.729Z,1.97
2018-12-02T05:04:41.183Z,1.80
2018-12-02T05:07:08.536Z,2.10
2018-12-02T05:09:35.909Z,2.17
2018-12-02T05:12:03.267Z,1.90
2018-12-02T05:14:30.745Z,1.90
2018-12-02T05:16:58.085Z,2.00
2018-12-02T05:19:25.464Z,2.00
2018-12-02T05:21:53.895Z,2.00
2018-12-02T05:24:21.275Z,1.93
2018-12-02T05:26:48.718Z,2.40
2018-12-02T05:29:17.563Z,2.47
2018-12-02T05:31:44.923Z,2.33
2018-12-02T05:34:13.004Z,2.20
2018-12-02T05:36:40.381Z,2.40
2018-12-02T05:39:09.543Z,2.10
2018-12-02T05:41:43.026Z,1.90
2018-12-02T05:44:10.449Z,2.13
2018-12-02T05:46:37.929Z,2.13
2018-12-02T05:49:05.427Z,1.90
2018-12-02T05:51:32.758Z,2.13
2018-12-02T05:54:00.247Z,1.87
2018-12-02T05:56:27.611Z,1.90
2018-12-02T05:58:55.055Z,2.00
2018-12-02T06:01:22.391Z,2.00
2018-12-02T06:03:49.734Z,2.20
2018-12-02T06:06:17.078Z,2.13
2018-12-02T06:08:44.454Z,2.03
2018-12-02T06:11:12.015Z,2.13
2018-12-02T06:13:39.460Z,1.90
2018-12-02T06:16:06.810Z,1.97
2018-12-02T06:18:34.171Z,2.27
2018-12-02T06:21:01.499Z,1.93
2018-12-02T06:23:30.753Z,1.90
2018-12-02T06:25:58.116Z,1.90
2018-12-02T06:28:25.449Z,2.10
2018-12-02T06:30:52.841Z,2.27
2018-12-02T06:33:20.209Z,2.23
2018-12-02T06:35:47.728Z,2.27
2018-12-02T06:38:15.157Z,2.00
2018-12-02T06:40:42.540Z,1.80
2018-12-02T06:43:11.280Z,2.13
2018-12-02T06:45:38.778Z,2.10
2018-12-02T06:48:06.237Z,2.27
2018-12-02T06:50:33.672Z,2.10
2018-12-02T06:53:01.039Z,2.10
2018-12-02T06:55:45.248Z,2.20
2018-12-02T06:58:25.291Z,2.30
2018-12-02T07:01:14.813Z,2.30
2018-12-02T07:03:56.522Z,2.40
2018-12-02T07:06:23.903Z,2.10
2018-12-02T07:08:51.444Z,1.97
2018-12-02T07:11:18.797Z,1.73
2018-12-02T07:13:46.177Z,1.67
2018-12-02T07:16:13.511Z,2.03
2018-12-02T07:18:44.510Z,1.70
2018-12-02T07:21:17.913Z,1.80
2018-12-02T07:23:48.891Z,1.70
2018-12-02T07:26:19.698Z,1.70
2018-12-02T07:28:47.053Z,1.93
2018-12-02T07:31:14.391Z,1.60
2018-12-02T07:33:41.867Z,1.53
2018-12-02T07:36:09.724Z,1.63
2018-12-02T07:38:39.982Z,1.50
2018-12-02T07:41:08.433Z,1.50
2018-12-02T07:43:35.879Z,1.67
2018-12-02T07:46:03.213Z,1.80
2018-12-02T07:48:30.695Z,1.77
2018-12-02T07:50:58.020Z,1.80
2018-12-02T07:53:25.500Z,1.73
2018-12-02T07:55:53.050Z,1.53
2018-12-02T07:58:20.568Z,1.27
2018-12-02T08:00:47.909Z,1.30
2018-12-02T08:03:15.224Z,1.40
2018-12-02T08:05:42.733Z,1.53
2018-12-02T08:08:10.220Z,1.67
2018-12-02T08:10:37.630Z,1.50
2018-12-02T08:13:05.595Z,1.53
2018-12-02T08:15:32.989Z,1.40
2018-12-02T08:18:00.430Z,1.30
2018-12-02T08:20:27.784Z,1.20
2018-12-02T08:22:55.136Z,1.40
2018-12-02T08:25:22.582Z,1.30
2018-12-02T08:27:50.036Z,1.50
2018-12-02T08:30:21.564Z,1.33
2018-12-02T08:32:49.062Z,1.53
2018-12-02T08:35:17.508Z,1.27
2018-12-02T08:37:46.370Z,1.77
2018-12-02T08:40:13.740Z,1.53
2018-12-02T08:42:41.214Z,1.63
2018-12-02T08:45:17.198Z,1.33
2018-12-02T08:47:44.848Z,1.40
2018-12-02T08:50:17.941Z,1.43
2018-12-02T08:52:46.294Z,1.50
2018-12-02T08:55:14.943Z,1.60
2018-12-02T08:57:42.386Z,1.40
2018-12-02T09:00:12.944Z,1.73
2018-12-02T09:02:40.400Z,1.50
2018-12-02T09:05:09.139Z,1.60
2018-12-02T09:07:36.598Z,1.60
2018-12-02T09:10:09.108Z,1.50
2018-12-02T09:12:36.707Z,1.57
2018-12-02T09:15:04.421Z,1.40
2018-12-02T09:17:31.871Z,1.50
2018-12-02T09:19:59.263Z,1.53
2018-12-02T09:22:26.573Z,1.60
2018-12-02T09:24:53.943Z,1.40
2018-12-02T09:27:21.381Z,1.60
2018-12-02T09:29:48.795Z,1.50
2018-12-02T09:32:16.224Z,1.57
2018-12-02T09:34:43.635Z,1.70
2018-12-02T09:37:10.971Z,1.57
2018-12-02T09:39:38.372Z,2.00
2018-12-02T09:42:05.957Z,2.07
2018-12-02T09:44:33.303Z,1.50
2018-12-02T09:47:00.698Z,1.67
2018-12-02T09:49:28.023Z,1.80
2018-12-02T09:51:55.417Z,1.80
2018-12-02T09:54:23.445Z,1.57
2018-12-02T09:56:50.627Z,1.60
2018-12-02T09:59:18.022Z,1.47
2018-12-02T10:01:45.475Z,1.50
2018-12-02T10:04:12.999Z,1.90
2018-12-02T10:06:40.375Z,2.03
2018-12-02T10:09:09.503Z,2.47
2018-12-02T10:11:36.902Z,2.20
2018-12-02T10:14:04.326Z,2.00
2018-12-02T10:16:31.837Z,1.80
2018-12-02T10:18:59.377Z,2.10
2018-12-02T10:21:27.691Z,2.00
2018-12-02T10:23:55.025Z,2.10
2018-12-02T10:26:22.389Z,1.90
2018-12-02T10:28:49.726Z,1.87
2018-12-02T10:31:17.105Z,1.80
2018-12-02T10:33:44.457Z,2.13
2018-12-02T10:36:12.163Z,1.97
2018-12-02T10:38:39.540Z,2.40
2018-12-02T10:41:07.309Z,2.40
2018-12-02T10:43:34.729Z,2.40
2018-12-02T10:46:02.106Z,2.80
2018-12-02T10:48:29.474Z,2.73
2018-12-02T10:50:56.915Z,2.93
2018-12-02T10:53:24.327Z,2.80
2018-12-02T10:55:54.322Z,2.73
2018-12-02T10:58:24.716Z,2.97
2018-12-02T11:00:59.087Z,3.33
2018-12-02T11:03:26.550Z,3.00
2018-12-02T11:05:53.898Z,3.10
2018-12-02T11:08:21.282Z,2.83
2018-12-02T11:10:48.848Z,3.17
2018-12-02T11:13:16.386Z,2.50
2018-12-02T11:15:43.868Z,2.60
2018-12-02T11:18:12.411Z,2.40
2018-12-02T11:20:39.864Z,2.67
2018-12-02T11:23:07.974Z,2.73
2018-12-02T11:25:36.024Z,2.70
2018-12-02T11:28:04.022Z,3.07
2018-12-02T11:30:31.408Z,3.43
2018-12-02T11:32:58.908Z,3.43
2018-12-02T11:35:26.409Z,3.70
2018-12-02T11:37:53.837Z,3.80
2018-12-02T11:40:21.897Z,3.60
2018-12-02T11:42:51.153Z,2.83
2018-12-02T11:45:18.726Z,2.83
2018-12-02T11:47:48.321Z,2.47
2018-12-02T11:50:17.182Z,2.40
2018-12-02T11:52:44.652Z,2.40
2018-12-02T11:55:13.025Z,2.40
2018-12-02T11:57:40.447Z,2.80
2018-12-02T12:00:27.759Z,2.00
2018-12-02T12:02:56.395Z,1.83
2018-12-02T12:05:23.777Z,2.00
2018-12-02T12:07:51.229Z,2.30
2018-12-02T12:10:20.789Z,2.10
2018-12-02T12:12:49.763Z,2.50
2018-12-02T12:15:19.350Z,2.60
2018-12-02T12:17:46.889Z,2.70
2018-12-02T12:20:22.438Z,2.23
2018-12-02T12:22:50.410Z,2.70
2018-12-02T12:25:17.938Z,2.53
2018-12-02T12:27:45.345Z,2.60
2018-12-02T12:30:15.268Z,2.07
2018-12-02T12:32:42.676Z,2.20
2018-12-02T12:35:11.574Z,1.87
2018-12-02T12:37:39.067Z,1.77
2018-12-02T12:40:14.035Z,1.80
2018-12-02T12:42:42.948Z,2.00
2018-12-02T12:45:12.083Z,2.00
2018-12-02T12:47:40.109Z,1.80
2018-12-02T12:50:11.853Z,1.87
2018-12-02T12:52:39.428Z,1.60
2018-12-02T12:55:09.802Z,1.50
2018-12-02T12:57:37.264Z,1.70
2018-12-02T13:00:10.286Z,1.50
2018-12-02T13:02:38.154Z,1.70
2018-12-02T13:05:07.213Z,1.50
2018-12-02T13:07:34.595Z,1.30
2018-12-02T13:10:02.162Z,1.73
2018-12-02T13:12:29.655Z,1.50
2018-12-02T13:14:57.067Z,1.50
2018-12-02T13:17:24.517Z,1.43
2018-12-02T13:19:51.885Z,1.60
2018-12-02T13:22:20.043Z,1.40
2018-12-02T13:24:47.581Z,1.20
2018-12-02T13:27:14.925Z,1.60
2018-12-02T13:29:42.401Z,1.40
2018-12-02T13:32:09.786Z,1.13
2018-12-02T13:34:37.691Z,1.40
2018-12-02T13:37:08.457Z,1.50
2018-12-02T13:39:36.114Z,1.40
2018-12-02T13:42:03.531Z,1.30
2018-12-02T13:44:30.939Z,1.40
2018-12-02T13:46:58.561Z,1.77
2018-12-02T13:49:26.059Z,1.50
2018-12-02T13:51:53.495Z,1.30
2018-12-02T13:54:26.611Z,1.10
2018-12-02T13:56:54.177Z,1.67
2018-12-02T13:59:21.578Z,1.50
2018-12-02T14:01:48.948Z,1.50
2018-12-02T14:04:16.941Z,1.70
2018-12-02T14:06:44.130Z,1.53
2018-12-02T14:09:11.630Z,1.80
2018-12-02T14:11:39.020Z,1.60
2018-12-02T14:14:07.808Z,1.70
2018-12-02T14:17:11.968Z,1.83
2018-12-02T14:19:41.124Z,1.60
2018-12-02T14:22:08.602Z,1.93
2018-12-02T14:24:36.022Z,2.00
2018-12-02T14:27:03.565Z,1.40
2018-12-02T14:29:34.023Z,1.50
2018-12-02T14:32:03.988Z,1.30
2018-12-02T14:34:31.547Z,1.60
2018-12-02T14:36:58.987Z,1.63
2018-12-02T14:39:26.393Z,1.60
2018-12-02T14:41:53.724Z,2.17
2018-12-02T14:44:21.094Z,1.50
2018-12-02T14:46:48.421Z,1.50
2018-12-02T14:49:15.820Z,1.50
2018-12-02T14:51:43.215Z,1.53
2018-12-02T14:54:10.839Z,1.70
2018-12-02T14:56:38.226Z,1.90
2018-12-02T14:59:05.844Z,1.90
2018-12-02T15:01:33.312Z,2.03
2018-12-02T15:04:00.937Z,1.70
2018-12-02T15:06:28.492Z,1.80
2018-12-02T15:08:56.066Z,1.80
2018-12-02T15:11:23.425Z,2.30
2018-12-02T15:13:50.818Z,2.17
2018-12-02T15:16:18.216Z,2.20
2018-12-02T15:18:45.568Z,1.97
2018-12-02T15:21:12.970Z,1.80
2018-12-02T15:23:40.604Z,1.73
2018-12-02T15:26:07.984Z,1.90
2018-12-02T15:28:35.340Z,1.80
2018-12-02T15:31:02.856Z,1.90
2018-12-02T15:33:30.216Z,1.90
2018-12-02T15:35:57.561Z,1.90
2018-12-02T15:38:25.050Z,1.80
2018-12-02T15:40:52.720Z,1.80
2018-12-02T15:43:20.099Z,1.60
2018-12-02T15:45:47.555Z,1.70
2018-12-02T15:48:14.935Z,2.00
2018-12-02T15:50:42.341Z,1.90
2018-12-02T15:53:09.703Z,2.30
2018-12-02T15:55:37.498Z,2.20
2018-12-02T15:58:09.617Z,1.80
2018-12-02T16:00:38.875Z,2.20
2018-12-02T16:03:06.792Z,1.97
2018-12-02T16:05:34.294Z,2.00
2018-12-02T16:08:02.282Z,2.20
2018-12-02T16:10:30.438Z,1.97
2018-12-02T16:12:57.918Z,2.30
2018-12-02T16:15:30.888Z,2.20
2018-12-02T16:17:58.342Z,2.50
2018-12-02T16:20:29.995Z,2.20
2018-12-02T16:22:57.622Z,2.30
2018-12-02T16:25:25.026Z,2.47
2018-12-02T16:27:52.391Z,2.40
2018-12-02T16:30:20.518Z,2.60
2018-12-02T16:32:50.288Z,2.53
2018-12-02T16:35:18.149Z,2.50
2018-12-02T16:37:47.197Z,2.80
2018-12-02T16:40:16.629Z,2.60
2018-12-02T16:42:44.567Z,2.80
2018-12-02T16:45:14.112Z,2.90
2018-12-02T16:47:42.619Z,3.20
2018-12-02T16:50:17.900Z,2.87
2018-12-02T16:52:45.371Z,3.03
2018-12-02T16:55:15.587Z,2.93
2018-12-02T16:57:44.529Z,3.10
2018-12-02T17:00:17.629Z,3.20
2018-12-02T17:02:45.187Z,2.90
2018-12-02T17:05:12.698Z,2.80
2018-12-02T17:10:14.013Z,3.40
2018-12-02T17:12:45.070Z,3.47
2018-12-02T17:15:14.491Z,3.33
2018-12-02T17:17:42.294Z,3.83
2018-12-02T17:20:11.403Z,3.90
2018-12-02T17:22:39.031Z,4.60
2018-12-02T17:25:08.626Z,4.40
2018-12-02T17:27:36.138Z,4.67
2018-12-02T17:30:08.640Z,4.50
2018-12-02T17:32:36.099Z,4.67
2018-12-02T17:35:03.915Z,4.63
2018-12-02T17:37:31.280Z,4.77
2018-12-02T17:39:58.840Z,4.60
2018-12-02T17:42:26.196Z,5.03
2018-12-02T17:44:53.560Z,4.70
2018-12-02T17:47:20.956Z,5.00
2018-12-02T17:49:48.448Z,5.00
2018-12-02T17:52:16.125Z,5.00
2018-12-02T17:54:43.730Z,4.97
2018-12-02T17:57:11.189Z,5.57
2018-12-02T17:59:38.567Z,5.30
2018-12-02T18:02:06.785Z,4.70
2018-12-02T18:04:34.145Z,5.47
2018-12-02T18:07:04.034Z,5.37
2018-12-02T18:09:31.605Z,5.57
2018-12-02T18:11:58.980Z,5.47
2018-12-02T18:14:26.442Z,5.10
2018-12-02T18:16:54.024Z,5.47
2018-12-02T18:19:22.059Z,5.53
2018-12-02T18:21:49.460Z,5.27
2018-12-02T18:24:16.845Z,4.63
2018-12-02T18:26:44.393Z,5.27
2018-12-02T18:29:11.961Z,5.43
2018-12-02T18:31:39.469Z,5.30
2018-12-02T18:34:06.852Z,5.13
2018-12-02T18:36:36.062Z,5.37
2018-12-02T18:39:06.870Z,5.43
2018-12-02T18:41:37.588Z,5.57
2018-12-02T18:44:07.059Z,5.50
2018-12-02T18:46:34.402Z,4.57
2018-12-02T18:49:01.799Z,4.93
2018-12-02T18:51:29.227Z,4.70
2018-12-02T18:53:56.697Z,4.63
2018-12-02T18:56:24.243Z,4.50
2018-12-02T18:58:51.625Z,4.20
2018-12-02T19:01:19.189Z,4.30
2018-12-02T19:03:46.802Z,4.50
2018-12-02T19:06:14.166Z,4.87
2018-12-02T19:08:41.726Z,4.70
2018-12-02T19:11:09.322Z,4.40
2018-12-02T19:13:36.900Z,4.40
2018-12-02T19:16:04.261Z,4.37
2018-12-02T19:18:31.703Z,4.47
2018-12-02T19:21:02.402Z,5.50
2018-12-02T19:23:31.968Z,5.03
2018-12-02T19:25:59.371Z,5.27
2018-12-02T19:28:26.823Z,5.27
2018-12-02T19:30:54.468Z,5.40
2018-12-02T19:33:23.580Z,6.10
2018-12-02T19:35:54.228Z,5.23
2018-12-02T19:38:23.275Z,5.73
2018-12-02T19:40:50.712Z,5.27
2018-12-02T19:43:18.258Z,5.60
2018-12-02T19:45:47.407Z,5.30
2018-12-02T19:48:14.815Z,5.53
2018-12-02T19:50:42.219Z,4.70
2018-12-02T19:53:09.643Z,5.10
2018-12-02T19:55:39.017Z,4.53
2018-12-02T19:58:08.541Z,4.53
2018-12-02T20:00:40.809Z,4.67
2018-12-02T20:03:08.772Z,5.17
2018-12-02T20:05:36.584Z,7.23
2018-12-02T20:08:04.062Z,6.00
2018-12-02T20:10:32.061Z,4.63
2018-12-02T20:13:02.510Z,4.73
2018-12-02T20:15:29.873Z,4.20
2018-12-02T20:17:57.268Z,3.93
2018-12-02T20:20:30.182Z,4.20
2018-12-02T20:22:57.714Z,4.10
2018-12-02T20:25:25.698Z,3.87
2018-12-02T20:27:55.174Z,3.57
2018-12-02T20:30:22.589Z,3.80
2018-12-02T20:32:50.458Z,3.90
2018-12-02T20:35:17.922Z,3.43
2018-12-02T20:37:46.449Z,3.27
2018-12-02T20:40:21.727Z,3.10
2018-12-02T20:42:50.070Z,2.70
2018-12-02T20:45:18.287Z,2.47
2018-12-02T20:47:45.891Z,2.30
2018-12-02T20:50:14.716Z,2.47
2018-12-02T20:52:42.100Z,2.27
2018-12-02T20:55:14.905Z,2.27
2018-12-02T20:57:42.941Z,2.30
2018-12-02T21:00:12.784Z,2.07
2018-12-02T21:02:41.127Z,2.30
2018-12-02T21:05:12.856Z,2.30
2018-12-02T21:07:40.279Z,2.33
2018-12-02T21:10:09.730Z,2.30
2018-12-02T21:12:37.455Z,2.73
2018-12-02T21:15:08.350Z,2.50
2018-12-02T21:17:35.964Z,2.30
2018-12-02T21:20:03.683Z,2.50
2018-12-02T21:22:31.161Z,2.60
2018-12-02T21:24:59.510Z,2.60
2018-12-02T21:27:26.901Z,2.87
2018-12-02T21:29:54.398Z,2.73
2018-12-02T21:32:22.621Z,2.70
2018-12-02T21:34:49.220Z,3.70
2018-12-02T21:37:16.629Z,4.60
2018-12-02T21:39:44.026Z,4.57
2018-12-02T21:42:11.392Z,5.10
2018-12-02T21:44:39.387Z,5.10
2018-12-02T21:47:07.009Z,6.00
2018-12-02T21:49:34.392Z,6.00
2018-12-02T21:52:01.881Z,6.37
2018-12-02T21:54:29.846Z,5.63
2018-12-02T21:56:57.285Z,5.57
2018-12-02T21:59:24.718Z,5.40
2018-12-02T22:01:52.201Z,5.70
2018-12-02T22:04:19.644Z,5.50
2018-12-02T22:06:47.123Z,5.47
2018-12-02T22:09:14.494Z,5.43
2018-12-02T22:11:42.081Z,5.07
2018-12-02T22:14:10.063Z,5.13
2018-12-02T22:16:37.475Z,4.83
2018-12-02T22:19:05.493Z,4.83
2018-12-02T22:21:32.946Z,4.90
2018-12-02T22:24:01.362Z,4.93
2018-12-02T22:26:27.755Z,4.70
2018-12-02T22:28:55.155Z,4.87
2018-12-02T22:31:22.578Z,4.80
2018-12-02T22:33:50.069Z,4.70
2018-12-02T22:36:17.442Z,4.50
2018-12-02T22:38:44.712Z,3.80
2018-12-02T22:41:12.118Z,4.00
2018-12-02T22:43:39.477Z,4.10
2018-12-02T22:46:06.994Z,3.93
2018-12-02T22:48:34.482Z,3.57
2018-12-02T22:51:01.857Z,3.27
2018-12-02T22:53:29.272Z,3.37
2018-12-02T22:55:56.697Z,3.33
2018-12-02T22:58:24.222Z,3.20
2018-12-02T23:00:57.286Z,3.53
2018-12-02T23:03:24.642Z,2.90
2018-12-02T23:05:52.250Z,2.97
2018-12-02T23:08:19.702Z,2.93
2018-12-02T23:10:47.102Z,3.17
2018-12-02T23:13:14.541Z,2.97
2018-12-02T23:15:41.921Z,3.00
2018-12-02T23:18:10.887Z,2.80
2018-12-02T23:20:38.260Z,2.70
2018-12-02T23:23:05.810Z,2.90
2018-12-02T23:25:33.356Z,2.87
2018-12-02T23:28:00.807Z,2.90
2018-12-02T23:30:28.220Z,3.17
2018-12-02T23:32:55.657Z,3.40
2018-12-02T23:35:23.068Z,3.43
2018-12-02T23:37:50.618Z,3.53
2018-12-02T23:40:23.040Z,3.23
2018-12-02T23:42:50.758Z,3.57
2018-12-02T23:45:18.457Z,3.70
2018-12-02T23:47:45.879Z,4.00
2018-12-02T23:50:21.777Z,3.70
2018-12-02T23:52:49.137Z,3.57
2018-12-02T23:55:17.504Z,4.53
2018-12-02T23:57:45.159Z,4.53
